sensor_id;sensor_type;location;lat;lon;timestamp;P1;durP1;ratioP1;P2;durP2;ratioP2
10535;SDS011;5316;49.538;8.352;2023-04-10T02:52:30;11.20;;;8.97;;
10535;SDS011;5316;49.538;8.352;2023-04-10T02:55:13;10.40;;;9.40;;
10535;SDS011;5316;49.538;8.352;2023-04-10T02:57:59;11.13;;;9.67;;
10535;SDS011;5316;49.538;8.352;2023-04-10T03:00:55;11.27;;;9.27;;
10535;SDS011;5316;49.538;8.352;2023-04-10T03:03:57;10.67;;;9.57;;
10535;SDS011;5316;49.538;8.352;2023-04-10T03:07:02;11.03;;;9.27;;
10535;SDS011;5316;49.538;8.352;2023-04-10T03:13:15;10.50;;;9.40;;
10535;SDS011;5316;49.538;8.352;2023-04-10T03:16:28;12.10;;;9.77;;
10535;SDS011;5316;49.538;8.352;2023-04-10T03:19:43;12.63;;;10.10;;
10535;SDS011;5316;49.538;8.352;2023-04-10T03:22:49;11.67;;;9.73;;
10535;SDS011;5316;49.538;8.352;2023-04-10T03:29:18;13.00;;;10.23;;
10535;SDS011;5316;49.538;8.352;2023-04-10T03:32:51;11.13;;;9.87;;
10535;SDS011;5316;49.538;8.352;2023-04-10T03:36:15;14.00;;;10.50;;
10535;SDS011;5316;49.538;8.352;2023-04-10T03:42:07;10.67;;;9.40;;
10535;SDS011;5316;49.538;8.352;2023-04-10T03:48:34;11.27;;;10.17;;
10535;SDS011;5316;49.538;8.352;2023-04-10T03:51:54;11.07;;;9.90;;
10535;SDS011;5316;49.538;8.352;2023-04-10T03:55:10;12.07;;;9.63;;
10535;SDS011;5316;49.538;8.352;2023-04-10T03:58:20;11.70;;;9.73;;
10535;SDS011;5316;49.538;8.352;2023-04-10T04:04:36;10.53;;;9.43;;
10535;SDS011;5316;49.538;8.352;2023-04-10T04:07:45;10.23;;;9.17;;
10535;SDS011;5316;49.538;8.352;2023-04-10T04:14:02;9.93;;;8.77;;
10535;SDS011;5316;49.538;8.352;2023-04-10T04:17:04;13.53;;;10.13;;
10535;SDS011;5316;49.538;8.352;2023-04-10T04:23:30;9.90;;;8.90;;
10535;SDS011;5316;49.538;8.352;2023-04-10T04:26:41;10.87;;;9.73;;
10535;SDS011;5316;49.538;8.352;2023-04-10T04:29:30;11.37;;;10.03;;
10535;SDS011;5316;49.538;8.352;2023-04-10T04:33:10;11.97;;;9.67;;
10535;SDS011;5316;49.538;8.352;2023-04-10T04:36:10;11.87;;;10.33;;
10535;SDS011;5316;49.538;8.352;2023-04-10T04:39:12;12.90;;;10.33;;
10535;SDS011;5316;49.538;8.352;2023-04-10T04:41:59;12.00;;;10.70;;
10535;SDS011;5316;49.538;8.352;2023-04-10T04:45:00;12.50;;;10.50;;
10535;SDS011;5316;49.538;8.352;2023-04-10T04:51:34;11.13;;;10.00;;
10535;SDS011;5316;49.538;8.352;2023-04-10T04:54:32;11.17;;;9.73;;
10535;SDS011;5316;49.538;8.352;2023-04-10T04:57:17;11.03;;;9.83;;
10535;SDS011;5316;49.538;8.352;2023-04-10T05:00:27;11.77;;;10.50;;
10535;SDS011;5316;49.538;8.352;2023-04-10T05:03:27;13.80;;;10.13;;
10535;SDS011;5316;49.538;8.352;2023-04-10T05:09:51;12.00;;;10.70;;
10535;SDS011;5316;49.538;8.352;2023-04-10T05:13:22;10.77;;;9.67;;
10535;SDS011;5316;49.538;8.352;2023-04-10T05:16:15;12.97;;;11.50;;
10535;SDS011;5316;49.538;8.352;2023-04-10T05:19:36;11.90;;;10.70;;
10535;SDS011;5316;49.538;8.352;2023-04-10T05:22:27;12.80;;;11.50;;
10535;SDS011;5316;49.538;8.352;2023-04-10T05:50:08;12.60;;;11.10;;
10535;SDS011;5316;49.538;8.352;2023-04-10T06:10:39;11.93;;;10.70;;
10535;SDS011;5316;49.538;8.352;2023-04-10T06:13:42;11.97;;;10.23;;
10535;SDS011;5316;49.538;8.352;2023-04-10T06:47:26;13.93;;;11.60;;
10535;SDS011;5316;49.538;8.352;2023-04-10T06:50:30;11.70;;;9.37;;
10535;SDS011;5316;49.538;8.352;2023-04-10T06:53:46;11.10;;;9.63;;
10535;SDS011;5316;49.538;8.352;2023-04-10T08:49:52;6.93;;;6.33;;
10535;SDS011;5316;49.538;8.352;2023-04-10T08:52:21;6.30;;;5.70;;
10535;SDS011;5316;49.538;8.352;2023-04-10T08:55:04;4.70;;;4.40;;
10535;SDS011;5316;49.538;8.352;2023-04-10T08:57:37;5.37;;;4.93;;
10535;SDS011;5316;49.538;8.352;2023-04-10T09:00:06;4.50;;;4.20;;
10535;SDS011;5316;49.538;8.352;2023-04-10T09:02:37;4.90;;;4.50;;
10535;SDS011;5316;49.538;8.352;2023-04-10T09:05:08;4.23;;;3.93;;
10535;SDS011;5316;49.538;8.352;2023-04-10T09:07:37;5.33;;;4.83;;
10535;SDS011;5316;49.538;8.352;2023-04-10T09:10:04;4.43;;;4.03;;
10535;SDS011;5316;49.538;8.352;2023-04-10T09:12:41;4.87;;;4.47;;
10535;SDS011;5316;49.538;8.352;2023-04-10T09:15:09;4.67;;;4.37;;
10535;SDS011;5316;49.538;8.352;2023-04-10T09:17:37;8.07;;;5.77;;
10535;SDS011;5316;49.538;8.352;2023-04-10T09:20:25;4.80;;;4.40;;
10535;SDS011;5316;49.538;8.352;2023-04-10T09:22:54;4.90;;;4.60;;
10535;SDS011;5316;49.538;8.352;2023-04-10T09:25:30;4.40;;;4.10;;
10535;SDS011;5316;49.538;8.352;2023-04-10T09:27:59;4.53;;;4.23;;
10535;SDS011;5316;49.538;8.352;2023-04-10T09:30:34;5.00;;;4.60;;
10535;SDS011;5316;49.538;8.352;2023-04-10T09:36:18;4.53;;;4.17;;
10535;SDS011;5316;49.538;8.352;2023-04-10T09:38:52;4.00;;;3.70;;
10535;SDS011;5316;49.538;8.352;2023-04-10T09:41:20;4.40;;;4.00;;
10535;SDS011;5316;49.538;8.352;2023-04-10T09:43:51;3.73;;;3.53;;
10535;SDS011;5316;49.538;8.352;2023-04-10T09:49:52;4.00;;;3.70;;
10535;SDS011;5316;49.538;8.352;2023-04-10T10:06:25;3.80;;;3.50;;
10535;SDS011;5316;49.538;8.352;2023-04-10T10:08:57;3.77;;;3.47;;
10535;SDS011;5316;49.538;8.352;2023-04-10T10:11:43;2.70;;;2.60;;
10535;SDS011;5316;49.538;8.352;2023-04-10T10:14:12;3.37;;;3.00;;
10535;SDS011;5316;49.538;8.352;2023-04-10T10:16:45;3.80;;;3.50;;
10535;SDS011;5316;49.538;8.352;2023-04-10T10:19:16;3.30;;;3.10;;
10535;SDS011;5316;49.538;8.352;2023-04-10T10:21:50;4.23;;;3.93;;
10535;SDS011;5316;49.538;8.352;2023-04-10T10:24:25;3.40;;;3.20;;
10535;SDS011;5316;49.538;8.352;2023-04-10T10:27:39;3.50;;;3.20;;
10535;SDS011;5316;49.538;8.352;2023-04-10T11:49:24;6.78;;;6.18;;
10535;SDS011;5316;49.538;8.352;2023-04-10T11:58:08;2.50;;;2.30;;
10535;SDS011;5316;49.538;8.352;2023-04-10T12:01:02;2.47;;;2.38;;
10535;SDS011;5316;49.538;8.352;2023-04-10T12:03:36;2.30;;;2.20;;
10535;SDS011;5316;49.538;8.352;2023-04-10T12:06:07;2.47;;;2.35;;
10535;SDS011;5316;49.538;8.352;2023-04-10T12:08:40;9.65;;;8.68;;
10535;SDS011;5316;49.538;8.352;2023-04-10T12:11:10;2.50;;;2.40;;
10535;SDS011;5316;49.538;8.352;2023-04-10T12:13:39;2.67;;;2.58;;
10535;SDS011;5316;49.538;8.352;2023-04-10T12:16:06;2.65;;;2.55;;
10535;SDS011;5316;49.538;8.352;2023-04-10T12:18:35;2.90;;;2.70;;
10535;SDS011;5316;49.538;8.352;2023-04-10T12:21:03;2.45;;;2.30;;
10535;SDS011;5316;49.538;8.352;2023-04-10T12:23:37;2.60;;;2.40;;
10535;SDS011;5316;49.538;8.352;2023-04-10T12:26:16;2.42;;;2.33;;
10535;SDS011;5316;49.538;8.352;2023-04-10T12:31:40;2.35;;;2.13;;
10535;SDS011;5316;49.538;8.352;2023-04-10T12:34:10;3.92;;;3.63;;
10535;SDS011;5316;49.538;8.352;2023-04-10T12:36:51;2.25;;;2.15;;
10535;SDS011;5316;49.538;8.352;2023-04-10T12:39:27;4.63;;;4.38;;
10535;SDS011;5316;49.538;8.352;2023-04-10T12:42:09;2.70;;;2.60;;
10535;SDS011;5316;49.538;8.352;2023-04-10T12:44:55;2.00;;;1.80;;
10535;SDS011;5316;49.538;8.352;2023-04-10T12:47:26;2.20;;;2.10;;
10535;SDS011;5316;49.538;8.352;2023-04-10T12:50:04;2.85;;;2.75;;
10535;SDS011;5316;49.538;8.352;2023-04-10T12:53:00;1.90;;;1.80;;
10535;SDS011;5316;49.538;8.352;2023-04-10T12:55:39;2.53;;;2.42;;
10535;SDS011;5316;49.538;8.352;2023-04-10T12:58:31;2.50;;;1.80;;
10535;SDS011;5316;49.538;8.352;2023-04-10T13:01:07;2.00;;;1.90;;
10535;SDS011;5316;49.538;8.352;2023-04-10T13:03:46;2.58;;;2.38;;
10535;SDS011;5316;49.538;8.352;2023-04-10T13:06:18;2.05;;;1.95;;
10535;SDS011;5316;49.538;8.352;2023-04-10T13:09:25;2.50;;;2.40;;
10535;SDS011;5316;49.538;8.352;2023-04-10T13:12:18;2.08;;;1.98;;
10535;SDS011;5316;49.538;8.352;2023-04-10T13:18:23;2.40;;;2.28;;
10535;SDS011;5316;49.538;8.352;2023-04-10T13:21:01;2.00;;;1.90;;
10535;SDS011;5316;49.538;8.352;2023-04-10T13:23:54;1.80;;;1.70;;
10535;SDS011;5316;49.538;8.352;2023-04-10T13:26:51;1.77;;;1.67;;
10535;SDS011;5316;49.538;8.352;2023-04-10T13:30:04;1.83;;;1.73;;
10535;SDS011;5316;49.538;8.352;2023-04-10T13:32:54;1.63;;;1.52;;
10535;SDS011;5316;49.538;8.352;2023-04-10T13:45:19;6.07;;;5.47;;
10535;SDS011;5316;49.538;8.352;2023-04-10T13:48:31;1.75;;;1.65;;
10535;SDS011;5316;49.538;8.352;2023-04-10T13:54:46;1.75;;;1.65;;
10535;SDS011;5316;49.538;8.352;2023-04-10T13:57:59;1.63;;;1.52;;
10535;SDS011;5316;49.538;8.352;2023-04-10T14:01:27;1.75;;;1.65;;
10535;SDS011;5316;49.538;8.352;2023-04-10T14:07:58;1.52;;;1.40;;
10535;SDS011;5316;49.538;8.352;2023-04-10T14:18:00;2.28;;;2.08;;
10535;SDS011;5316;49.538;8.352;2023-04-10T14:27:47;1.67;;;1.30;;
10535;SDS011;5316;49.538;8.352;2023-04-10T15:01:41;3.17;;;2.95;;
10535;SDS011;5316;49.538;8.352;2023-04-10T15:21:39;2.45;;;1.40;;
10535;SDS011;5316;49.538;8.352;2023-04-10T15:24:52;1.10;;;1.10;;
10535;SDS011;5316;49.538;8.352;2023-04-10T15:28:04;1.38;;;1.23;;
10535;SDS011;5316;49.538;8.352;2023-04-10T15:31:11;1.33;;;1.23;;
10535;SDS011;5316;49.538;8.352;2023-04-10T15:37:21;1.83;;;1.73;;
10535;SDS011;5316;49.538;8.352;2023-04-10T15:40:28;1.55;;;1.50;;
10535;SDS011;5316;49.538;8.352;2023-04-10T15:44:04;1.50;;;1.50;;
10535;SDS011;5316;49.538;8.352;2023-04-10T15:46:41;4.70;;;4.10;;
10535;SDS011;5316;49.538;8.352;2023-04-10T16:07:08;1.95;;;1.10;;
10535;SDS011;5316;49.538;8.352;2023-04-10T16:10:16;1.50;;;1.40;;
10535;SDS011;5316;49.538;8.352;2023-04-10T16:16:35;1.42;;;1.30;;
10535;SDS011;5316;49.538;8.352;2023-04-10T17:26:16;1.33;;;1.33;;
10535;SDS011;5316;49.538;8.352;2023-04-10T17:35:52;1.20;;;1.20;;
10535;SDS011;5316;49.538;8.352;2023-04-10T17:38:20;1.40;;;1.40;;
10535;SDS011;5316;49.538;8.352;2023-04-10T17:40:51;2.00;;;1.90;;
10535;SDS011;5316;49.538;8.352;2023-04-10T17:43:19;1.40;;;1.30;;
10535;SDS011;5316;49.538;8.352;2023-04-10T17:45:49;1.10;;;1.10;;
10535;SDS011;5316;49.538;8.352;2023-04-10T17:48:16;1.40;;;1.30;;
10535;SDS011;5316;49.538;8.352;2023-04-10T17:50:45;1.93;;;1.40;;
10535;SDS011;5316;49.538;8.352;2023-04-10T17:53:12;1.73;;;1.30;;
10535;SDS011;5316;49.538;8.352;2023-04-10T17:55:39;1.40;;;1.30;;
10535;SDS011;5316;49.538;8.352;2023-04-10T17:58:06;2.43;;;1.43;;
10535;SDS011;5316;49.538;8.352;2023-04-10T18:00:34;1.47;;;1.37;;
10535;SDS011;5316;49.538;8.352;2023-04-10T18:03:01;5.60;;;5.10;;
10535;SDS011;5316;49.538;8.352;2023-04-10T18:05:28;2.20;;;2.10;;
10535;SDS011;5316;49.538;8.352;2023-04-10T18:07:55;4.90;;;4.50;;
10535;SDS011;5316;49.538;8.352;2023-04-10T18:10:22;1.33;;;1.23;;
10535;SDS011;5316;49.538;8.352;2023-04-10T18:12:49;2.20;;;2.00;;
10535;SDS011;5316;49.538;8.352;2023-04-10T18:15:17;1.97;;;1.87;;
10535;SDS011;5316;49.538;8.352;2023-04-10T18:17:45;1.97;;;1.87;;
10535;SDS011;5316;49.538;8.352;2023-04-10T18:20:12;1.70;;;1.50;;
10535;SDS011;5316;49.538;8.352;2023-04-10T18:22:39;1.73;;;1.63;;
10535;SDS011;5316;49.538;8.352;2023-04-10T18:25:06;3.60;;;1.70;;
10535;SDS011;5316;49.538;8.352;2023-04-10T18:27:34;1.60;;;1.50;;
10535;SDS011;5316;49.538;8.352;2023-04-10T18:30:01;2.40;;;2.13;;
10535;SDS011;5316;49.538;8.352;2023-04-10T18:32:27;8.03;;;6.47;;
10535;SDS011;5316;49.538;8.352;2023-04-10T18:34:56;3.80;;;3.43;;
10535;SDS011;5316;49.538;8.352;2023-04-10T18:37:23;4.80;;;2.53;;
10535;SDS011;5316;49.538;8.352;2023-04-10T18:39:50;3.53;;;2.70;;
10535;SDS011;5316;49.538;8.352;2023-04-10T18:42:17;2.50;;;2.30;;
10535;SDS011;5316;49.538;8.352;2023-04-10T18:44:44;5.60;;;2.83;;
10535;SDS011;5316;49.538;8.352;2023-04-10T18:47:18;2.53;;;2.17;;
10535;SDS011;5316;49.538;8.352;2023-04-10T18:49:48;3.77;;;3.47;;
10535;SDS011;5316;49.538;8.352;2023-04-10T18:52:17;8.73;;;6.43;;
10535;SDS011;5316;49.538;8.352;2023-04-10T18:54:44;2.93;;;1.90;;
10535;SDS011;5316;49.538;8.352;2023-04-10T18:57:19;3.07;;;1.40;;
10535;SDS011;5316;49.538;8.352;2023-04-10T18:59:46;1.47;;;1.40;;
10535;SDS011;5316;49.538;8.352;2023-04-10T19:02:13;2.00;;;1.80;;
10535;SDS011;5316;49.538;8.352;2023-04-10T19:04:39;6.33;;;5.43;;
10535;SDS011;5316;49.538;8.352;2023-04-10T19:07:06;4.30;;;1.60;;
10535;SDS011;5316;49.538;8.352;2023-04-10T19:09:34;2.67;;;1.57;;
10535;SDS011;5316;49.538;8.352;2023-04-10T19:12:01;3.97;;;2.67;;
10535;SDS011;5316;49.538;8.352;2023-04-10T19:14:29;1.63;;;1.53;;
10535;SDS011;5316;49.538;8.352;2023-04-10T19:17:01;2.70;;;1.70;;
10535;SDS011;5316;49.538;8.352;2023-04-10T19:19:31;1.67;;;1.57;;
10535;SDS011;5316;49.538;8.352;2023-04-10T19:21:58;1.67;;;1.57;;
10535;SDS011;5316;49.538;8.352;2023-04-10T19:27:29;1.40;;;1.30;;
10535;SDS011;5316;49.538;8.352;2023-04-10T19:30:20;1.90;;;1.80;;
10535;SDS011;5316;49.538;8.352;2023-04-10T19:33:08;1.97;;;1.87;;
10535;SDS011;5316;49.538;8.352;2023-04-10T19:35:52;1.80;;;1.70;;
10535;SDS011;5316;49.538;8.352;2023-04-10T19:38:34;2.23;;;1.50;;
10535;SDS011;5316;49.538;8.352;2023-04-10T19:51:01;3.83;;;2.30;;
10535;SDS011;5316;49.538;8.352;2023-04-10T19:53:54;2.97;;;2.00;;
10535;SDS011;5316;49.538;8.352;2023-04-10T19:56:43;5.07;;;2.10;;
10535;SDS011;5316;49.538;8.352;2023-04-10T19:59:35;3.27;;;2.93;;
10535;SDS011;5316;49.538;8.352;2023-04-10T20:02:30;4.37;;;1.90;;
10535;SDS011;5316;49.538;8.352;2023-04-10T20:05:41;2.43;;;1.90;;
10535;SDS011;5316;49.538;8.352;2023-04-10T20:15:25;3.90;;;1.90;;
10535;SDS011;5316;49.538;8.352;2023-04-10T20:18:14;2.00;;;1.37;;
10535;SDS011;5316;49.538;8.352;2023-04-10T20:21:01;1.53;;;1.30;;
10535;SDS011;5316;49.538;8.352;2023-04-10T20:24:00;1.20;;;1.20;;
10535;SDS011;5316;49.538;8.352;2023-04-10T20:26:56;1.30;;;1.30;;
10535;SDS011;5316;49.538;8.352;2023-04-10T20:30:01;2.13;;;1.90;;
10535;SDS011;5316;49.538;8.352;2023-04-10T20:33:15;1.27;;;1.20;;
10535;SDS011;5316;49.538;8.352;2023-04-10T20:36:50;1.50;;;1.37;;
10535;SDS011;5316;49.538;8.352;2023-04-10T20:40:05;1.30;;;1.20;;
10535;SDS011;5316;49.538;8.352;2023-04-10T20:43:17;1.87;;;1.27;;
10535;SDS011;5316;49.538;8.352;2023-04-10T20:46:09;1.50;;;1.40;;
10535;SDS011;5316;49.538;8.352;2023-04-10T20:49:10;1.27;;;1.27;;
10535;SDS011;5316;49.538;8.352;2023-04-10T20:52:30;2.33;;;2.13;;
10535;SDS011;5316;49.538;8.352;2023-04-10T20:56:58;1.30;;;1.20;;
10535;SDS011;5316;49.538;8.352;2023-04-10T21:02:22;1.10;;;1.10;;
10535;SDS011;5316;49.538;8.352;2023-04-10T21:05:07;1.23;;;1.10;;
10535;SDS011;5316;49.538;8.352;2023-04-10T21:07:38;1.07;;;1.07;;
10535;SDS011;5316;49.538;8.352;2023-04-10T21:10:07;1.20;;;1.10;;
10535;SDS011;5316;49.538;8.352;2023-04-10T21:12:36;1.10;;;1.10;;
10535;SDS011;5316;49.538;8.352;2023-04-10T21:15:04;1.43;;;1.33;;
10535;SDS011;5316;49.538;8.352;2023-04-10T21:17:33;1.00;;;1.00;;
10535;SDS011;5316;49.538;8.352;2023-04-10T21:20:00;1.20;;;1.10;;
10535;SDS011;5316;49.538;8.352;2023-04-10T21:22:28;1.37;;;1.10;;
10535;SDS011;5316;49.538;8.352;2023-04-10T21:24:55;1.30;;;1.20;;
10535;SDS011;5316;49.538;8.352;2023-04-10T21:27:25;1.30;;;1.10;;
10535;SDS011;5316;49.538;8.352;2023-04-10T21:29:53;1.37;;;1.27;;
10535;SDS011;5316;49.538;8.352;2023-04-10T21:32:22;1.73;;;1.63;;
10535;SDS011;5316;49.538;8.352;2023-04-10T21:34:54;1.33;;;1.00;;
10535;SDS011;5316;49.538;8.352;2023-04-10T21:37:24;3.20;;;1.00;;
10535;SDS011;5316;49.538;8.352;2023-04-10T21:39:51;1.10;;;1.10;;
10535;SDS011;5316;49.538;8.352;2023-04-10T21:42:20;1.30;;;1.20;;
10535;SDS011;5316;49.538;8.352;2023-04-10T21:44:47;1.20;;;1.10;;
10535;SDS011;5316;49.538;8.352;2023-04-10T21:47:16;2.67;;;1.10;;
10535;SDS011;5316;49.538;8.352;2023-04-10T21:49:43;1.40;;;1.03;;
10535;SDS011;5316;49.538;8.352;2023-04-10T21:52:12;1.30;;;1.20;;
10535;SDS011;5316;49.538;8.352;2023-04-10T21:54:40;3.27;;;1.10;;
10535;SDS011;5316;49.538;8.352;2023-04-10T21:57:07;1.10;;;1.10;;
10535;SDS011;5316;49.538;8.352;2023-04-10T21:59:36;1.77;;;1.23;;
10535;SDS011;5316;49.538;8.352;2023-04-10T22:02:03;1.10;;;1.00;;
10535;SDS011;5316;49.538;8.352;2023-04-10T22:04:30;1.57;;;1.13;;
10535;SDS011;5316;49.538;8.352;2023-04-10T22:07:00;1.13;;;0.90;;
10535;SDS011;5316;49.538;8.352;2023-04-10T22:09:30;1.10;;;1.10;;
10535;SDS011;5316;49.538;8.352;2023-04-10T22:12:03;1.47;;;1.10;;
10535;SDS011;5316;49.538;8.352;2023-04-10T22:14:32;1.03;;;0.93;;
10535;SDS011;5316;49.538;8.352;2023-04-10T22:20:00;1.37;;;1.27;;
10535;SDS011;5316;49.538;8.352;2023-04-10T22:22:28;2.10;;;1.10;;
10535;SDS011;5316;49.538;8.352;2023-04-10T22:24:59;1.20;;;1.10;;
10535;SDS011;5316;49.538;8.352;2023-04-10T22:27:26;1.57;;;1.10;;
10535;SDS011;5316;49.538;8.352;2023-04-10T22:29:54;1.17;;;1.00;;
10535;SDS011;5316;49.538;8.352;2023-04-10T22:32:21;1.07;;;0.83;;
10535;SDS011;5316;49.538;8.352;2023-04-10T22:34:48;2.57;;;1.30;;
10535;SDS011;5316;49.538;8.352;2023-04-10T22:37:15;1.97;;;1.07;;
10535;SDS011;5316;49.538;8.352;2023-04-10T22:39:42;2.07;;;1.00;;
10535;SDS011;5316;49.538;8.352;2023-04-10T22:42:11;1.17;;;0.90;;
10535;SDS011;5316;49.538;8.352;2023-04-10T22:44:38;2.10;;;0.90;;
10535;SDS011;5316;49.538;8.352;2023-04-10T22:47:05;1.93;;;0.80;;
10535;SDS011;5316;49.538;8.352;2023-04-10T22:49:32;0.90;;;0.90;;
10535;SDS011;5316;49.538;8.352;2023-04-10T22:52:00;2.53;;;0.97;;
10535;SDS011;5316;49.538;8.352;2023-04-10T22:54:27;1.93;;;1.07;;
10535;SDS011;5316;49.538;8.352;2023-04-10T22:56:55;1.17;;;0.90;;
10535;SDS011;5316;49.538;8.352;2023-04-10T22:59:26;2.00;;;1.30;;
10535;SDS011;5316;49.538;8.352;2023-04-10T23:02:06;1.83;;;1.13;;
10535;SDS011;5316;49.538;8.352;2023-04-10T23:04:33;1.40;;;1.30;;
10535;SDS011;5316;49.538;8.352;2023-04-10T23:07:02;1.70;;;1.10;;
10535;SDS011;5316;49.538;8.352;2023-04-10T23:09:29;1.33;;;1.17;;
10535;SDS011;5316;49.538;8.352;2023-04-10T23:11:56;1.57;;;1.47;;
10535;SDS011;5316;49.538;8.352;2023-04-10T23:14:26;1.50;;;1.40;;
10535;SDS011;5316;49.538;8.352;2023-04-10T23:16:55;1.83;;;1.57;;
10535;SDS011;5316;49.538;8.352;2023-04-10T23:19:22;1.87;;;1.40;;
10535;SDS011;5316;49.538;8.352;2023-04-10T23:21:49;1.63;;;1.53;;
10535;SDS011;5316;49.538;8.352;2023-04-10T23:24:17;1.17;;;1.17;;
10535;SDS011;5316;49.538;8.352;2023-04-10T23:26:44;1.40;;;1.30;;
10535;SDS011;5316;49.538;8.352;2023-04-10T23:29:11;1.40;;;1.23;;
10535;SDS011;5316;49.538;8.352;2023-04-10T23:31:40;1.87;;;1.20;;
10535;SDS011;5316;49.538;8.352;2023-04-10T23:34:07;2.60;;;1.40;;
10535;SDS011;5316;49.538;8.352;2023-04-10T23:36:35;1.93;;;1.50;;
10535;SDS011;5316;49.538;8.352;2023-04-10T23:39:02;1.90;;;1.40;;
10535;SDS011;5316;49.538;8.352;2023-04-10T23:41:31;1.70;;;1.60;;
10535;SDS011;5316;49.538;8.352;2023-04-10T23:43:58;1.53;;;1.37;;
10535;SDS011;5316;49.538;8.352;2023-04-10T23:46:26;1.63;;;1.50;;
10535;SDS011;5316;49.538;8.352;2023-04-10T23:48:54;2.37;;;1.30;;
10535;SDS011;5316;49.538;8.352;2023-04-10T23:51:21;1.43;;;1.40;;
10535;SDS011;5316;49.538;8.352;2023-04-10T23:53:48;1.50;;;1.40;;
10535;SDS011;5316;49.538;8.352;2023-04-10T23:56:15;1.77;;;1.67;;
10535;SDS011;5316;49.538;8.352;2023-04-10T23:58:42;2.20;;;1.90;;
